createdAt,value
2019-06-10T00:02:33.772Z,102233.28
2019-06-10T00:05:41.567Z,102241.67
2019-06-10T00:08:50.484Z,102238.77
2019-06-10T00:11:56.328Z,102239.38
2019-06-10T00:15:03.386Z,102238.50
2019-06-10T00:18:34.414Z,102243.22
2019-06-10T00:21:21.581Z,102242.09
2019-06-10T00:24:27.435Z,102242.09
2019-06-10T00:27:33.843Z,102243.37
2019-06-10T00:30:41.159Z,102240.23
2019-06-10T00:33:47.877Z,102241.33
2019-06-10T00:36:54.307Z,102236.19
2019-06-10T00:40:03.580Z,102229.97
2019-06-10T00:43:11.595Z,102229.97
2019-06-10T00:46:17.202Z,102232.72
2019-06-10T00:49:23.627Z,102224.46
2019-06-10T00:52:30.856Z,102233.02
2019-06-10T00:55:37.611Z,102232.16
2019-06-10T00:58:44.139Z,102233.63
2019-06-10T01:01:50.993Z,102250.62
2019-06-10T01:04:57.500Z,102235.79
2019-06-10T01:08:04.574Z,102236.91
2019-06-10T01:11:20.242Z,102239.66
2019-06-10T01:14:21.472Z,102239.66
2019-06-10T01:17:27.560Z,102247.14
2019-06-10T01:20:33.918Z,102244.50
2019-06-10T01:23:41.632Z,102245.26
2019-06-10T01:26:50.438Z,102245.02
2019-06-10T01:29:56.222Z,102244.10
2019-06-10T01:33:02.590Z,102251.65
2019-06-10T01:36:12.570Z,102245.38
2019-06-10T01:39:18.060Z,102248.34
2019-06-10T01:42:24.828Z,102251.45
2019-06-10T01:45:31.351Z,102246.27
2019-06-10T01:48:44.112Z,102254.83
2019-06-10T01:51:45.954Z,102254.09
2019-06-10T01:54:52.402Z,102253.85
2019-06-10T01:58:00.867Z,102253.45
2019-06-10T02:01:23.156Z,102253.52
2019-06-10T02:04:27.577Z,102253.48
2019-06-10T02:07:34.031Z,102249.34
2019-06-10T02:10:41.558Z,102257.72
2019-06-10T02:13:48.294Z,102257.81
2019-06-10T02:16:55.100Z,102257.81
2019-06-10T02:20:01.597Z,102260.16
2019-06-10T02:23:08.076Z,102253.85
2019-06-10T02:26:15.301Z,102253.85
2019-06-10T02:29:23.583Z,102257.50
2019-06-10T02:32:36.241Z,102250.41
2019-06-10T02:35:44.314Z,102255.16
2019-06-10T02:38:46.268Z,102248.06
2019-06-10T02:41:55.161Z,102262.80
2019-06-10T02:45:03.765Z,102257.17
2019-06-10T02:48:12.890Z,102250.68
2019-06-10T02:51:20.430Z,102256.59
2019-06-10T02:54:31.380Z,102259.42
2019-06-10T02:57:39.635Z,102256.05
2019-06-10T03:00:47.996Z,102254.34
2019-06-10T03:03:53.949Z,102249.16
2019-06-10T03:06:59.035Z,102252.45
2019-06-10T03:10:06.068Z,102248.70
2019-06-10T03:13:12.702Z,102246.75
2019-06-10T03:16:25.835Z,102251.93
2019-06-10T03:19:44.123Z,102257.53
2019-06-10T03:22:42.320Z,102256.69
2019-06-10T03:25:58.923Z,102252.81
2019-06-10T03:29:05.405Z,102247.94
2019-06-10T03:32:15.190Z,102247.33
2019-06-10T03:35:19.790Z,102248.70
2019-06-10T03:38:28.107Z,102247.23
2019-06-10T03:41:34.382Z,102244.83
2019-06-10T03:44:42.968Z,102250.43
2019-06-10T03:47:49.099Z,102253.08
2019-06-10T03:50:55.444Z,102245.03
2019-06-10T03:54:02.519Z,102252.92
2019-06-10T03:57:09.078Z,102250.63
2019-06-10T04:00:17.351Z,102247.78
2019-06-10T04:03:27.749Z,102256.25
2019-06-10T04:06:33.873Z,102248.69
2019-06-10T04:09:42.381Z,102243.55
2019-06-10T04:12:48.486Z,102236.27
2019-06-10T04:15:57.316Z,102247.28
2019-06-10T04:19:04.114Z,102246.24
2019-06-10T04:22:12.933Z,102251.29
2019-06-10T04:25:19.584Z,102256.78
2019-06-10T04:28:27.283Z,102250.89
2019-06-10T04:31:33.842Z,102255.34
2019-06-10T04:34:42.718Z,102247.97
2019-06-10T04:37:48.467Z,102239.09
2019-06-10T04:40:54.808Z,102241.00
2019-06-10T04:44:02.688Z,102240.59
2019-06-10T04:47:09.265Z,102228.91
2019-06-10T04:50:26.102Z,102241.27
2019-06-10T04:53:26.458Z,102238.77
2019-06-10T04:56:33.607Z,102232.77
2019-06-10T04:59:42.709Z,102236.14
2019-06-10T05:02:48.241Z,102238.39
2019-06-10T05:05:54.938Z,102238.91
2019-06-10T05:09:01.217Z,102239.98
2019-06-10T05:12:08.249Z,102234.81
2019-06-10T05:15:14.916Z,102234.29
2019-06-10T05:18:23.839Z,102232.80
2019-06-10T05:21:33.544Z,102242.12
2019-06-10T05:24:39.031Z,102234.84
2019-06-10T05:27:45.439Z,102226.81
2019-06-10T05:30:53.194Z,102229.34
2019-06-10T05:33:59.728Z,102217.80
2019-06-10T05:37:06.160Z,102226.05
2019-06-10T05:40:13.130Z,102223.84
2019-06-10T05:43:21.956Z,102222.98
2019-06-10T05:46:28.709Z,102214.31
2019-06-10T05:49:36.160Z,102222.33
2019-06-10T05:52:43.578Z,102217.06
2019-06-10T05:55:52.828Z,102222.42
2019-06-10T05:59:01.494Z,102222.42
2019-06-10T06:02:06.242Z,102228.02
2019-06-10T06:05:12.954Z,102223.57
2019-06-10T06:08:19.504Z,102221.02
2019-06-10T06:11:27.665Z,102215.95
2019-06-10T06:14:35.748Z,102221.84
2019-06-10T06:17:43.141Z,102233.27
2019-06-10T06:20:52.588Z,102232.65
2019-06-10T06:23:59.213Z,102219.22
2019-06-10T06:27:05.743Z,102219.22
2019-06-10T06:30:18.744Z,102222.59
2019-06-10T06:33:23.431Z,102228.81
2019-06-10T06:36:31.257Z,102241.11
2019-06-10T06:39:38.353Z,102228.44
2019-06-10T06:42:44.805Z,102245.28
2019-06-10T06:45:53.152Z,102235.09
2019-06-10T06:48:59.206Z,102236.08
2019-06-10T06:52:05.711Z,102236.36
2019-06-10T06:55:13.944Z,102242.39
2019-06-10T06:58:20.400Z,102233.88
2019-06-10T07:01:26.860Z,102243.18
2019-06-10T07:04:37.118Z,102236.75
2019-06-10T07:07:44.227Z,102241.31
2019-06-10T07:10:52.262Z,102243.20
2019-06-10T07:14:03.680Z,102245.84
2019-06-10T07:17:09.156Z,102245.61
2019-06-10T07:20:15.831Z,102229.28
2019-06-10T07:23:22.594Z,102231.45
2019-06-10T07:26:29.291Z,102220.61
2019-06-10T07:29:38.559Z,102229.48
2019-06-10T07:32:47.120Z,102220.69
2019-06-10T07:35:53.478Z,102216.97
2019-06-10T07:39:00.259Z,102223.80
2019-06-10T07:42:06.888Z,102223.75
2019-06-10T07:45:13.478Z,102219.81
2019-06-10T07:48:22.165Z,102224.59
2019-06-10T07:51:28.208Z,102230.93
2019-06-10T07:54:35.932Z,102238.59
2019-06-10T07:57:45.267Z,102235.02
2019-06-10T08:00:53.439Z,102220.03
2019-06-10T08:03:59.505Z,102220.03
2019-06-10T08:07:06.091Z,102229.94
2019-06-10T08:10:14.358Z,102230.39
2019-06-10T08:13:22.619Z,102220.70
2019-06-10T08:16:29.202Z,102220.70
2019-06-10T08:19:39.800Z,102239.12
2019-06-10T08:22:50.774Z,102241.96
2019-06-10T08:25:56.866Z,102233.68
2019-06-10T08:29:04.165Z,102249.32
2019-06-10T08:32:08.690Z,102251.77
2019-06-10T08:35:15.163Z,102239.50
2019-06-10T08:38:23.089Z,102230.27
2019-06-10T08:41:32.127Z,102228.22
2019-06-10T08:44:38.812Z,102213.58
2019-06-10T08:47:47.712Z,102233.39
2019-06-10T08:50:54.555Z,102222.58
2019-06-10T08:54:02.386Z,102220.06
2019-06-10T08:57:12.471Z,102222.97
2019-06-10T09:00:22.690Z,102230.56
2019-06-10T09:03:27.535Z,102237.03
2019-06-10T09:06:34.109Z,102235.05
2019-06-10T09:09:41.333Z,102236.29
2019-06-10T09:12:51.337Z,102233.44
2019-06-10T09:16:10.864Z,102231.78
2019-06-10T09:19:05.590Z,102233.05
2019-06-10T09:22:12.624Z,102233.33
2019-06-10T09:25:19.271Z,102236.99
2019-06-10T09:28:25.761Z,102228.34
2019-06-10T09:31:33.380Z,102227.61
2019-06-10T09:34:43.086Z,102233.14
2019-06-10T09:37:51.584Z,102235.55
2019-06-10T09:41:01.624Z,102228.08
2019-06-10T09:44:05.450Z,102224.59
2019-06-10T09:47:14.276Z,102218.83
2019-06-10T09:50:26.994Z,102211.86
2019-06-10T09:53:42.432Z,102213.97
2019-06-10T09:56:45.097Z,102227.13
2019-06-10T09:59:55.739Z,102216.70
2019-06-10T10:02:58.256Z,102213.77
2019-06-10T10:06:14.382Z,102213.77
2019-06-10T10:09:12.890Z,102217.43
2019-06-10T10:12:19.471Z,102209.50
2019-06-10T10:15:30.767Z,102219.86
2019-06-10T10:18:34.452Z,102213.89
2019-06-10T10:21:45.631Z,102221.02
2019-06-10T10:24:49.389Z,102228.05
2019-06-10T10:27:57.581Z,102218.42
2019-06-10T10:31:04.751Z,102210.97
2019-06-10T10:34:13.477Z,102212.27
2019-06-10T10:37:19.517Z,102207.09
2019-06-10T10:40:26.116Z,102213.75
2019-06-10T10:43:36.556Z,102212.22
2019-06-10T10:46:40.791Z,102207.03
2019-06-10T10:49:47.260Z,102215.05
2019-06-10T10:52:53.987Z,102204.20
2019-06-10T10:56:02.296Z,102203.73
2019-06-10T10:59:08.610Z,102216.69
2019-06-10T11:02:15.254Z,102203.96
2019-06-10T11:05:33.578Z,102204.97
2019-06-10T11:08:42.519Z,102190.83
2019-06-10T11:11:49.061Z,102197.97
2019-06-10T11:15:00.447Z,102190.25
2019-06-10T11:18:04.340Z,102185.41
2019-06-10T11:21:13.266Z,102185.41
2019-06-10T11:24:35.501Z,102181.07
2019-06-10T11:27:28.486Z,102176.78
2019-06-10T11:30:34.993Z,102174.43
2019-06-10T11:33:43.441Z,102169.28
2019-06-10T11:36:53.530Z,102195.13
2019-06-10T11:39:58.685Z,102191.94
2019-06-10T11:43:05.304Z,102176.86
2019-06-10T11:46:13.755Z,102174.16
2019-06-10T11:49:19.994Z,102181.37
2019-06-10T11:52:26.516Z,102169.58
2019-06-10T11:55:34.200Z,102172.09
2019-06-10T11:58:42.647Z,102172.68
2019-06-10T12:01:50.294Z,102172.34
2019-06-10T12:04:58.964Z,102169.04
2019-06-10T12:08:05.438Z,102165.49
2019-06-10T12:11:12.695Z,102163.23
2019-06-10T12:14:19.438Z,102175.19
2019-06-10T12:17:41.755Z,102164.34
2019-06-10T12:20:35.039Z,102164.06
2019-06-10T12:23:44.141Z,102161.54
2019-06-10T12:26:53.482Z,102165.65
2019-06-10T12:30:00.257Z,102153.48
2019-06-10T12:33:07.170Z,102161.86
2019-06-10T12:36:13.572Z,102161.48
2019-06-10T12:39:22.732Z,102163.24
2019-06-10T12:42:28.299Z,102159.84
2019-06-10T12:45:34.904Z,102153.13
2019-06-10T12:48:42.649Z,102146.23
2019-06-10T12:51:49.604Z,102157.08
2019-06-10T12:54:57.482Z,102157.33
2019-06-10T12:58:05.997Z,102157.33
2019-06-10T13:01:12.215Z,102145.11
2019-06-10T13:04:18.931Z,102145.11
2019-06-10T13:07:25.496Z,102139.23
2019-06-10T13:10:42.990Z,102135.48
2019-06-10T13:13:49.591Z,102133.11
2019-06-10T13:16:56.114Z,102138.93
2019-06-10T13:20:05.947Z,102136.19
2019-06-10T13:23:20.267Z,102143.59
2019-06-10T13:26:19.383Z,102137.58
2019-06-10T13:29:25.879Z,102129.11
2019-06-10T13:32:32.558Z,102151.49
2019-06-10T13:35:39.302Z,102127.05
2019-06-10T13:38:53.264Z,102146.25
2019-06-10T13:42:05.029Z,102144.11
2019-06-10T13:45:14.704Z,102149.84
2019-06-10T13:48:25.653Z,102151.95
2019-06-10T13:51:32.350Z,102151.95
2019-06-10T13:54:39.185Z,102147.95
2019-06-10T13:57:46.623Z,102134.22
2019-06-10T14:00:54.121Z,102147.31
2019-06-10T14:04:09.895Z,102146.81
2019-06-10T14:07:12.665Z,102152.46
2019-06-10T14:10:19.256Z,102148.87
2019-06-10T14:13:28.518Z,102145.34
2019-06-10T14:16:34.938Z,102140.52
2019-06-10T14:19:43.256Z,102145.58
2019-06-10T14:22:53.179Z,102153.27
2019-06-10T14:26:03.237Z,102148.05
2019-06-10T14:29:15.620Z,102143.30
2019-06-10T14:32:22.392Z,102147.15
2019-06-10T14:35:29.101Z,102141.28
2019-06-10T14:38:35.829Z,102145.16
2019-06-10T14:41:43.040Z,102132.94
2019-06-10T14:44:49.720Z,102128.63
2019-06-10T14:47:58.688Z,102130.90
2019-06-10T14:51:05.370Z,102143.02
2019-06-10T14:54:14.636Z,102139.38
2019-06-10T14:57:22.701Z,102137.06
2019-06-10T15:00:28.657Z,102131.27
2019-06-10T15:03:35.163Z,102140.25
2019-06-10T15:06:43.199Z,102147.72
2019-06-10T15:09:52.493Z,102143.68
2019-06-10T15:12:58.174Z,102148.29
2019-06-10T15:16:04.985Z,102140.67
2019-06-10T15:19:18.171Z,102142.69
2019-06-10T15:22:20.032Z,102152.39
2019-06-10T15:25:28.410Z,102138.91
2019-06-10T15:28:34.909Z,102140.78
2019-06-10T15:31:42.862Z,102149.88
2019-06-10T15:34:49.462Z,102156.19
2019-06-10T15:37:55.968Z,102157.38
2019-06-10T15:41:02.322Z,102147.05
2019-06-10T15:44:09.672Z,102148.53
2019-06-10T15:47:19.412Z,102150.71
2019-06-10T15:50:27.334Z,102146.86
2019-06-10T15:53:33.035Z,102143.81
2019-06-10T15:56:49.379Z,102142.66
2019-06-10T15:59:47.650Z,102138.75
2019-06-10T16:02:54.306Z,102141.48
2019-06-10T16:06:02.917Z,102144.64
2019-06-10T16:09:12.155Z,102139.55
2019-06-10T16:12:19.958Z,102139.55
2019-06-10T16:15:26.802Z,102163.92
2019-06-10T16:18:33.338Z,102157.12
2019-06-10T16:21:39.808Z,102162.11
2019-06-10T16:24:46.381Z,102158.67
2019-06-10T16:27:54.408Z,102161.27
2019-06-10T16:31:02.775Z,102161.27
2019-06-10T16:34:09.675Z,102167.09
2019-06-10T16:37:17.045Z,102173.38
2019-06-10T16:40:26.742Z,102166.27
2019-06-10T16:43:33.678Z,102168.39
2019-06-10T16:46:42.656Z,102162.19
2019-06-10T16:49:48.680Z,102161.59
2019-06-10T16:52:55.252Z,102161.67
2019-06-10T16:56:03.327Z,102159.50
2019-06-10T16:59:12.202Z,102146.70
2019-06-10T17:02:19.209Z,102145.73
2019-06-10T17:05:27.595Z,102150.05
2019-06-10T17:08:34.100Z,102153.05
2019-06-10T17:11:42.700Z,102156.19
2019-06-10T17:14:49.291Z,102149.39
2019-06-10T17:17:55.982Z,102164.55
2019-06-10T17:21:03.685Z,102164.55
2019-06-10T17:24:12.718Z,102159.20
2019-06-10T17:27:22.282Z,102163.86
2019-06-10T17:30:28.485Z,102162.30
2019-06-10T17:33:36.116Z,102159.95
2019-06-10T17:36:42.971Z,102158.92
2019-06-10T17:39:49.490Z,102147.34
2019-06-10T17:42:56.015Z,102156.34
2019-06-10T17:46:03.349Z,102153.70
2019-06-10T17:49:10.074Z,102153.70
2019-06-10T17:52:16.460Z,102154.28
2019-06-10T17:55:25.971Z,102145.78
2019-06-10T17:58:43.335Z,102148.06
2019-06-10T18:01:40.436Z,102149.25
2019-06-10T18:04:47.050Z,102159.33
2019-06-10T18:07:53.700Z,102155.97
2019-06-10T18:11:00.134Z,102156.57
2019-06-10T18:14:06.796Z,102154.23
2019-06-10T18:17:13.235Z,102153.77
2019-06-10T18:20:19.705Z,102148.06
2019-06-10T18:23:26.514Z,102153.39
2019-06-10T18:26:36.251Z,102152.05
2019-06-10T18:29:42.624Z,102144.39
2019-06-10T18:32:49.277Z,102151.11
2019-06-10T18:35:55.817Z,102156.92
2019-06-10T18:39:03.692Z,102161.87
2019-06-10T18:42:12.642Z,102160.87
2019-06-10T18:45:22.233Z,102164.86
2019-06-10T18:48:29.016Z,102164.44
2019-06-10T18:51:37.362Z,102154.95
2019-06-10T18:54:44.635Z,102161.75
2019-06-10T18:57:52.994Z,102166.89
2019-06-10T19:01:05.267Z,102163.53
2019-06-10T19:04:07.821Z,102170.75
2019-06-10T19:07:14.298Z,102172.98
2019-06-10T19:10:23.071Z,102170.58
2019-06-10T19:13:29.562Z,102170.05
2019-06-10T19:16:37.324Z,102172.63
2019-06-10T19:19:44.326Z,102175.04
2019-06-10T19:22:52.691Z,102163.98
2019-06-10T19:25:59.253Z,102173.84
2019-06-10T19:29:06.628Z,102176.89
2019-06-10T19:32:13.183Z,102188.36
2019-06-10T19:35:22.221Z,102192.47
2019-06-10T19:38:28.070Z,102187.81
2019-06-10T19:41:37.605Z,102192.66
2019-06-10T19:44:45.593Z,102184.41
2019-06-10T19:47:52.258Z,102187.73
2019-06-10T19:50:58.857Z,102186.82
2019-06-10T19:54:05.234Z,102196.17
2019-06-10T19:57:12.871Z,102202.02
2019-06-10T20:00:22.153Z,102193.52
2019-06-10T20:03:29.280Z,102196.08
2019-06-10T20:06:35.920Z,102208.91
2019-06-10T20:09:46.113Z,102215.42
2019-06-10T20:12:53.722Z,102215.89
2019-06-10T20:16:03.645Z,102227.39
2019-06-10T20:19:09.928Z,102219.73
2019-06-10T20:22:16.487Z,102214.38
2019-06-10T20:25:23.130Z,102219.20
2019-06-10T20:28:32.176Z,102223.77
2019-06-10T20:31:40.047Z,102224.27
2019-06-10T20:34:49.632Z,102213.85
2019-06-10T20:37:56.820Z,102210.77
2019-06-10T20:41:03.543Z,102212.87
2019-06-10T20:44:10.240Z,102216.77
2019-06-10T20:47:16.657Z,102222.12
2019-06-10T20:50:25.004Z,102218.80
2019-06-10T20:53:33.549Z,102225.70
2019-06-10T20:56:45.543Z,102234.34
2019-06-10T20:59:51.379Z,102244.45
2019-06-10T21:03:03.254Z,102240.22
2019-06-10T21:06:13.036Z,102247.37
2019-06-10T21:09:19.120Z,102257.37
2019-06-10T21:12:25.620Z,102260.54
2019-06-10T21:15:34.618Z,102247.40
2019-06-10T21:18:45.251Z,102244.17
2019-06-10T21:21:50.347Z,102231.72
2019-06-10T21:24:57.368Z,102244.91
2019-06-10T21:28:05.488Z,102248.18
2019-06-10T21:31:13.417Z,102251.42
2019-06-10T21:34:23.961Z,102258.29
2019-06-10T21:37:32.037Z,102257.70
2019-06-10T21:40:38.534Z,102250.70
2019-06-10T21:43:49.387Z,102251.30
2019-06-10T21:46:53.757Z,102253.63
2019-06-10T21:50:00.310Z,102256.93
2019-06-10T21:53:08.351Z,102261.93
2019-06-10T21:56:14.918Z,102251.48
2019-06-10T21:59:28.704Z,102251.48
2019-06-10T22:02:38.477Z,102248.22
2019-06-10T22:05:47.508Z,102248.22
2019-06-10T22:08:56.712Z,102267.44
2019-06-10T22:12:03.283Z,102263.74
2019-06-10T22:15:12.289Z,102271.19
2019-06-10T22:18:19.991Z,102283.41
2019-06-10T22:21:27.348Z,102274.11
2019-06-10T22:24:33.739Z,102270.20
2019-06-10T22:27:47.860Z,102270.30
2019-06-10T22:31:14.593Z,102269.35
2019-06-10T22:34:07.273Z,102269.03
2019-06-10T22:37:13.690Z,102274.77
2019-06-10T22:40:22.383Z,102272.85
2019-06-10T22:43:33.194Z,102265.25
2019-06-10T22:46:43.511Z,102287.05
2019-06-10T22:49:54.442Z,102287.05
2019-06-10T22:52:59.735Z,102278.91
2019-06-10T22:56:06.234Z,102286.83
2019-06-10T22:59:13.249Z,102275.53
2019-06-10T23:02:22.798Z,102278.14
2019-06-10T23:05:28.990Z,102276.56
2019-06-10T23:08:35.656Z,102271.38
2019-06-10T23:11:42.483Z,102267.28
2019-06-10T23:14:49.110Z,102250.44
2019-06-10T23:17:57.098Z,102254.06
2019-06-10T23:21:04.540Z,102243.70
2019-06-10T23:24:13.409Z,102252.98
2019-06-10T23:27:19.312Z,102252.31
2019-06-10T23:30:25.722Z,102254.62
2019-06-10T23:33:32.490Z,102250.94
2019-06-10T23:36:38.994Z,102253.68
2019-06-10T23:39:45.351Z,102270.55
2019-06-10T23:42:53.116Z,102261.10
2019-06-10T23:45:59.715Z,102274.28
2019-06-10T23:49:06.233Z,102265.11
2019-06-10T23:52:12.919Z,102283.25
2019-06-10T23:55:19.284Z,102282.39
2019-06-10T23:58:25.753Z,102281.53
